Time;durP1;ratioP1;P1;durP2;ratioP2;P2;SDS_P1;SDS_P2;PMS_P1;PMS_P2;Temp;Humidity;BMP_temperature;BMP_pressure;BME280_temperature;BME280_humidity;BME280_pressure;Samples;Min_cycle;Max_cycle;Signal;HPM_P1;HPM_P2
2023/02/15 00:01:35;;;;;;;2.33;0.90;;;;;;;2.29;60.64;101212.92;1729598;82;21411;-62
2023/02/15 00:04:05;;;;;;;1.70;1.10;;;;;;;2.27;60.73;101212.19;1729880;83;21030;-62
2023/02/15 00:06:35;;;;;;;5.12;1.67;;;;;;;2.26;60.86;101214.53;1729467;83;21078;-64
2023/02/15 00:09:04;;;;;;;1.55;0.70;;;;;;;2.26;60.95;101223.99;1729679;82;21073;-62
2023/02/15 00:11:40;;;;;;;1.80;0.78;;;;;;;2.26;60.79;101219.45;1729483;82;21030;-61
2023/02/15 00:14:15;;;;;;;2.42;0.78;;;;;;;2.25;60.67;101230.38;1668751;85;21467;-63
2023/02/15 00:16:45;;;;;;;1.80;0.75;;;;;;;2.22;60.77;101228.30;1668749;86;21050;-63
2023/02/15 00:19:16;;;;;;;1.30;0.80;;;;;;;2.21;61.14;101215.76;1668695;86;21110;-63
2023/02/15 00:21:47;;;;;;;3.67;0.90;;;;;;;2.20;61.45;101224.00;1668614;86;21090;-63
2023/02/15 00:24:19;;;;;;;1.35;0.68;;;;;;;2.19;61.58;101216.37;1668974;86;21102;-62
2023/02/15 00:26:48;;;;;;;2.08;0.90;;;;;;;2.18;61.73;101216.50;1668804;86;21109;-63
2023/02/15 00:29:17;;;;;;;2.17;1.05;;;;;;;2.19;61.85;101215.03;1668927;86;21139;-62
2023/02/15 00:31:48;;;;;;;4.50;1.02;;;;;;;2.19;61.84;101209.62;1668645;86;21566;-61
2023/02/15 00:34:23;;;;;;;1.57;0.90;;;;;;;2.19;61.75;101213.67;1668680;86;21058;-62
2023/02/15 00:36:52;;;;;;;2.83;1.00;;;;;;;2.18;61.74;101220.56;1668513;86;21478;-64
2023/02/15 00:39:21;;;;;;;2.87;1.00;;;;;;;2.17;61.78;101219.70;1713211;83;21102;-62
2023/02/15 00:41:51;;;;;;;2.98;1.07;;;;;;;2.14;61.89;101219.08;1729579;83;20991;-63
2023/02/15 00:44:20;;;;;;;3.22;1.20;;;;;;;2.15;61.94;101231.13;1729445;83;21470;-63
2023/02/15 00:46:50;;;;;;;2.85;1.20;;;;;;;2.18;61.89;101230.02;1729371;83;21516;-63
2023/02/15 00:49:18;;;;;;;3.17;1.25;;;;;;;2.16;61.80;101232.84;1729423;83;21482;-63
2023/02/15 00:51:47;;;;;;;2.95;1.00;;;;;;;2.14;61.83;101236.66;1729495;83;21546;-63
2023/02/15 00:54:16;;;;;;;3.37;1.10;;;;;;;2.15;61.70;101230.27;1729520;83;21070;-62
2023/02/15 00:56:45;;;;;;;4.03;1.20;;;;;;;2.16;61.62;101232.84;1729697;83;21561;-63
2023/02/15 00:59:16;;;;;;;2.83;1.47;;;;;;;2.16;61.51;101231.50;1729454;83;21442;-61
2023/02/15 01:01:45;;;;;;;2.60;1.15;;;;;;;2.13;61.49;101238.98;1729402;83;21516;-64
2023/02/15 01:04:14;;;;;;;2.77;0.85;;;;;;;2.11;61.34;101239.11;1729411;83;21477;-63
2023/02/15 01:06:45;;;;;;;1.98;0.85;;;;;;;2.12;61.05;101239.48;1729567;83;21065;-62
2023/02/15 01:09:14;;;;;;;4.35;1.15;;;;;;;2.10;60.51;101247.34;1729510;83;21462;-60
2023/02/15 01:12:01;;;;;;;1.45;0.85;;;;;;;2.07;60.34;101238.98;1729442;83;21477;-63
2023/02/15 01:14:31;;;;;;;1.70;0.88;;;;;;;2.07;60.34;101239.48;1729456;83;21466;-62
2023/02/15 01:17:00;;;;;;;2.17;0.68;;;;;;;2.06;60.29;101235.92;1729661;83;21488;-62
2023/02/15 01:19:30;;;;;;;2.45;0.70;;;;;;;2.06;60.25;101233.22;1729333;83;21058;-60
2023/02/15 01:22:02;;;;;;;1.85;0.62;;;;;;;2.05;60.35;101245.50;1729383;83;21426;-61
2023/02/15 01:24:33;;;;;;;1.17;0.62;;;;;;;2.06;60.32;101235.92;1729448;83;21030;-63
2023/02/15 01:27:04;;;;;;;1.55;0.78;;;;;;;2.07;60.23;101238.98;1729405;83;21003;-63
2023/02/15 01:29:34;;;;;;;2.87;0.78;;;;;;;2.04;60.14;101236.53;1729444;83;21431;-61
2023/02/15 01:32:04;;;;;;;1.80;0.80;;;;;;;2.04;60.28;101241.08;1729425;83;21443;-63
2023/02/15 01:34:33;;;;;;;2.42;1.02;;;;;;;2.05;60.33;101243.66;1729555;83;21014;-62
2023/02/15 01:37:02;;;;;;;1.57;0.60;;;;;;;2.05;60.29;101233.34;1729296;83;21475;-62
2023/02/15 01:39:31;;;;;;;2.33;0.78;;;;;;;2.06;59.77;101231.00;1729561;83;21658;-63
2023/02/15 01:42:00;;;;;;;1.10;0.62;;;;;;;2.03;59.55;101226.70;1729668;83;21010;-64
2023/02/15 01:44:51;;;;;;;1.52;0.72;;;;;;;2.03;59.44;101236.16;1729418;83;21427;-63
2023/02/15 01:47:40;;;;;;;1.90;0.70;;;;;;;2.04;59.40;101233.83;1729530;83;21121;-62
2023/02/15 01:50:27;;;;;;;2.72;0.65;;;;;;;2.07;59.28;101234.08;1729407;83;21015;-63
2023/02/15 01:53:07;;;;;;;0.90;0.70;;;;;;;2.09;59.11;101238.38;1729434;83;21046;-62
2023/02/15 01:55:47;;;;;;;1.37;0.90;;;;;;;2.10;58.95;101245.50;1724448;83;21426;-61
2023/02/15 01:58:17;;;;;;;2.08;1.27;;;;;;;2.08;58.84;101243.91;1729182;83;21026;-62
2023/02/15 02:00:47;;;;;;;1.40;0.93;;;;;;;2.06;58.54;101249.44;1729395;83;21046;-61
2023/02/15 02:03:16;;;;;;;3.08;1.10;;;;;;;2.05;58.25;101241.45;1729762;82;21459;-62
2023/02/15 02:05:46;;;;;;;2.77;1.35;;;;;;;2.03;58.18;101248.81;1729479;83;21443;-62
2023/02/15 02:08:14;;;;;;;3.12;1.50;;;;;;;2.02;58.20;101249.31;1729610;83;21435;-64
2023/02/15 02:10:45;;;;;;;2.92;1.50;;;;;;;2.01;58.22;101250.78;1729432;83;21028;-62
2023/02/15 02:13:16;;;;;;;2.98;1.50;;;;;;;2.01;57.85;101244.02;1703298;83;21114;-62
2023/02/15 02:16:03;;;;;;;2.27;1.22;;;;;;;2.00;57.87;101250.41;1729562;83;21441;-63
2023/02/15 02:18:59;;;;;;;3.12;1.27;;;;;;;2.01;57.64;101257.54;1726835;83;21094;-61
2023/02/15 02:22:04;;;;;;;1.72;0.90;;;;;;;1.99;57.14;101254.95;1729265;83;21486;-61
2023/02/15 02:25:14;;;;;;;2.17;0.90;;;;;;;1.96;56.82;101255.20;1729436;83;21430;-62
2023/02/15 02:28:08;;;;;;;2.30;0.82;;;;;;;1.93;56.77;101254.06;1729356;83;21467;-63
2023/02/15 02:30:57;;;;;;;4.78;1.75;;;;;;;1.96;56.30;101266.02;1689788;83;21399;-62
2023/02/15 02:33:45;;;;;;;2.25;0.82;;;;;;;1.93;56.00;101255.41;1728983;83;21030;-61
2023/02/15 02:36:22;;;;;;;1.67;0.67;;;;;;;1.93;55.78;101262.16;1729704;83;21047;-60
2023/02/15 02:39:19;;;;;;;2.65;0.62;;;;;;;1.92;55.36;101255.05;1729204;82;21090;-63
2023/02/15 02:42:02;;;;;;;1.57;0.60;;;;;;;1.93;55.36;101258.11;1729638;83;21744;-62
2023/02/15 02:44:49;;;;;;;1.22;0.70;;;;;;;1.97;55.45;101258.77;1729226;83;21034;-63
2023/02/15 02:47:24;;;;;;;1.12;0.50;;;;;;;1.99;55.24;101254.95;1729460;83;21085;-65
2023/02/15 02:50:08;;;;;;;2.42;0.80;;;;;;;1.96;54.87;101260.61;1729413;82;21584;-62
2023/02/15 02:52:46;;;;;;;2.05;0.55;;;;;;;1.94;54.99;101270.64;1729355;83;21442;-62
2023/02/15 02:55:47;;;;;;;0.40;0.40;;;;;;;1.92;54.87;101263.15;1717320;83;21482;-63
2023/02/15 02:58:33;;;;;;;1.82;0.65;;;;;;;1.91;55.13;101262.78;1713800;84;21497;-64
2023/02/15 03:01:06;;;;;;;1.05;0.62;;;;;;;1.89;55.21;101266.09;1713774;84;21062;-61
2023/02/15 03:03:45;;;;;;;1.30;0.70;;;;;;;1.86;55.24;101263.63;1713922;84;21111;-62
2023/02/15 03:06:26;;;;;;;1.35;0.62;;;;;;;1.84;55.38;101262.89;1713721;84;21039;-62
2023/02/15 03:08:59;;;;;;;2.85;0.80;;;;;;;1.86;55.57;101262.28;1713711;83;21015;-62
2023/02/15 03:11:29;;;;;;;0.95;0.70;;;;;;;1.83;55.66;101267.44;1675635;85;21044;-61
2023/02/15 03:13:58;;;;;;;2.02;0.80;;;;;;;1.83;55.67;101267.92;1677160;85;21048;-61
2023/02/15 03:16:27;;;;;;;1.12;0.70;;;;;;;1.80;55.65;101265.47;1677345;85;21036;-62
2023/02/15 03:19:19;;;;;;;1.80;1.05;;;;;;;1.80;55.93;101272.22;1650081;87;21444;-62
2023/02/15 03:21:57;;;;;;;4.90;1.35;;;;;;;1.80;56.07;101271.73;1677255;85;21032;-62
2023/02/15 03:24:53;;;;;;;2.05;0.85;;;;;;;1.83;56.15;101266.58;1677180;85;21071;-63
2023/02/15 03:27:29;;;;;;;2.27;1.02;;;;;;;1.83;56.22;101275.55;1677462;85;21064;-63
2023/02/15 03:29:58;;;;;;;1.62;0.78;;;;;;;1.83;56.29;101277.38;1677133;85;21091;-64
2023/02/15 03:32:29;;;;;;;1.92;0.90;;;;;;;1.83;56.30;101277.38;1677445;85;21027;-62
2023/02/15 03:34:57;;;;;;;1.92;1.10;;;;;;;1.81;56.42;101284.75;1677475;85;21485;-62
2023/02/15 03:37:37;;;;;;;3.58;1.00;;;;;;;1.78;56.12;101277.74;1677263;85;21557;-61
2023/02/15 03:43:19;;;;;;;5.25;0.95;;;;;;;1.72;56.01;101280.06;1677419;85;21031;-63
2023/02/15 03:45:55;;;;;;;2.50;0.88;;;;;;;1.67;55.47;101280.91;1662339;85;21480;-62
2023/02/15 03:48:38;;;;;;;2.98;0.78;;;;;;;1.64;55.84;101279.31;1677536;85;21055;-63
2023/02/15 03:54:12;;;;;;;1.90;0.70;;;;;;;1.67;55.96;101288.52;1677211;85;21444;-63
2023/02/15 04:01:56;;;;;;;2.37;1.00;;;;;;;1.68;56.15;101296.14;1649716;86;21053;-62
2023/02/15 04:02:17;;;;;;;0.90;0.68;;;;;;;1.72;55.96;101292.22;1650011;86;21064;-63
2023/02/15 04:04:47;;;;;;;1.57;0.93;;;;;;;1.75;55.96;101288.79;1677085;85;21557;-62
2023/02/15 04:07:16;;;;;;;4.05;0.68;;;;;;;1.76;55.92;101286.45;1677368;85;21493;-62
2023/02/15 04:12:32;;;;;;;1.25;0.78;;;;;;;1.76;55.91;101296.41;1677377;85;21024;-62
2023/02/15 04:17:53;;;;;;;2.50;1.07;;;;;;;1.79;55.98;101300.22;1677226;85;21036;-62
2023/02/15 04:25:58;;;;;;;2.47;1.10;;;;;;;1.81;56.07;101307.72;1650153;86;21463;-61
2023/02/15 04:28:28;;;;;;;5.40;1.37;;;;;;;1.79;56.21;101301.08;1677048;85;21020;-62
2023/02/15 04:30:56;;;;;;;4.75;1.42;;;;;;;1.79;56.28;101313.73;1677435;85;21519;-62
2023/02/15 04:33:27;;;;;;;3.98;1.20;;;;;;;1.79;56.24;101305.63;1649763;87;21111;-62
2023/02/15 04:35:56;;;;;;;8.98;1.70;;;;;;;1.79;56.13;101303.78;1677013;85;21488;-62
2023/02/15 04:38:25;;;;;;;4.42;1.05;;;;;;;1.77;56.09;101306.23;1677046;85;21554;-62
2023/02/15 04:40:54;;;;;;;6.85;1.40;;;;;;;1.76;56.32;101305.86;1677431;85;21533;-63
2023/02/15 04:43:22;;;;;;;4.58;1.07;;;;;;;1.75;56.40;101306.34;1649875;87;21487;-64
2023/02/15 04:45:51;;;;;;;3.37;1.05;;;;;;;1.74;56.49;101311.38;1677036;85;21444;-62
2023/02/15 04:48:21;;;;;;;11.38;2.05;;;;;;;1.76;56.59;101307.21;1649773;87;21495;-62
2023/02/15 04:50:49;;;;;;;2.75;0.98;;;;;;;1.76;56.73;101306.72;1677146;85;21051;-62
2023/02/15 04:53:19;;;;;;;4.55;1.00;;;;;;;1.78;56.93;101310.17;1677113;85;21475;-63
2023/02/15 04:55:48;;;;;;;3.95;1.00;;;;;;;1.78;56.94;101314.70;1677054;85;21535;-63
2023/02/15 04:58:16;;;;;;;2.25;1.00;;;;;;;1.78;57.08;101308.81;1677133;85;21504;-62
2023/02/15 05:00:45;;;;;;;4.87;1.17;;;;;;;1.77;57.09;101311.63;1677164;85;21503;-64
2023/02/15 05:03:14;;;;;;;2.35;1.20;;;;;;;1.76;57.21;101313.97;1649985;87;21079;-63
2023/02/15 05:05:44;;;;;;;7.17;1.60;;;;;;;1.74;57.27;101319.48;1676825;85;21068;-63
2023/02/15 05:08:12;;;;;;;4.00;1.27;;;;;;;1.72;57.42;101319.23;1677165;85;21474;-63
2023/02/15 05:10:42;;;;;;;2.85;1.20;;;;;;;1.71;57.55;101325.13;1677005;85;21103;-62
2023/02/15 05:13:12;;;;;;;6.72;1.50;;;;;;;1.73;57.65;101322.31;1677071;85;21012;-63
2023/02/15 05:15:48;;;;;;;5.70;2.17;;;;;;;1.71;57.49;101339.13;1677153;85;21078;-62
2023/02/15 05:18:20;;;;;;;5.83;1.17;;;;;;;1.65;57.54;101349.05;1677299;85;21035;-61
2023/02/15 05:20:48;;;;;;;3.37;1.35;;;;;;;1.64;57.64;101348.68;1677045;85;21043;-62
2023/02/15 05:23:18;;;;;;;25.20;2.52;;;;;;;1.64;57.67;101350.03;1677023;85;21468;-62
2023/02/15 05:28:36;;;;;;;8.70;2.25;;;;;;;1.63;57.69;101345.61;1677199;85;21052;-63
2023/02/15 05:31:15;;;;;;;3.50;1.30;;;;;;;1.61;57.70;101353.83;1677438;85;21424;-62
2023/02/15 05:33:44;;;;;;;3.87;1.55;;;;;;;1.61;57.62;101357.88;1677032;85;21051;-63
2023/02/15 05:36:12;;;;;;;6.95;2.22;;;;;;;1.59;57.62;101352.59;1649564;87;21543;-64
2023/02/15 05:38:41;;;;;;;9.53;4.37;;;;;;;1.61;57.72;101358.37;1677093;85;21456;-63
2023/02/15 05:41:10;;;;;;;3.35;1.65;;;;;;;1.63;57.63;101353.71;1677023;85;21068;-63
2023/02/15 05:43:39;;;;;;;11.53;2.22;;;;;;;1.62;57.57;101356.90;1677018;85;21479;-62
2023/02/15 05:46:07;;;;;;;10.20;2.00;;;;;;;1.60;57.66;101353.45;1677184;85;21083;-62
2023/02/15 05:48:36;;;;;;;4.08;1.40;;;;;;;1.61;57.74;101357.88;1677087;85;21047;-62
2023/02/15 05:51:12;;;;;;;7.35;3.22;;;;;;;1.61;57.47;101363.77;1677037;85;21135;-62
2023/02/15 05:53:42;;;;;;;6.65;1.37;;;;;;;1.59;57.16;101360.70;1677160;85;21424;-64
2023/02/15 05:56:11;;;;;;;4.95;1.60;;;;;;;1.61;57.25;101370.52;1677947;85;21142;-63
2023/02/15 05:58:41;;;;;;;7.03;1.75;;;;;;;1.62;56.95;101365.48;1691741;84;21502;-62
2023/02/15 06:01:17;;;;;;;4.58;1.37;;;;;;;1.62;56.65;101381.70;1729310;83;21492;-62
2023/02/15 06:03:45;;;;;;;8.13;1.57;;;;;;;1.57;56.22;101372.59;1729490;83;21011;-63
2023/02/15 06:06:16;;;;;;;4.40;1.50;;;;;;;1.59;56.30;101383.66;1729349;82;21286;-63
2023/02/15 06:08:44;;;;;;;12.75;2.50;;;;;;;1.58;56.04;101382.42;1729482;83;21081;-64
2023/02/15 06:11:13;;;;;;;2.77;1.15;;;;;;;1.54;55.49;101384.98;1729543;83;21508;-64
2023/02/15 06:13:42;;;;;;;3.37;1.10;;;;;;;1.47;55.13;101378.31;1729101;83;21304;-61
2023/02/15 06:16:12;;;;;;;3.67;1.05;;;;;;;1.46;55.40;101381.51;1729459;83;21058;-64
2023/02/15 06:18:42;;;;;;;11.03;1.25;;;;;;;1.46;55.44;101386.91;1729329;83;21081;-61
2023/02/15 06:21:12;;;;;;;4.15;1.02;;;;;;;1.47;55.06;101390.47;1729492;83;21070;-63
2023/02/15 06:23:43;;;;;;;2.30;1.00;;;;;;;1.49;54.75;101392.08;1729012;83;21462;-62
2023/02/15 06:26:12;;;;;;;5.62;1.47;;;;;;;1.47;54.72;101385.93;1729256;83;21034;-62
2023/02/15 06:28:42;;;;;;;3.15;1.20;;;;;;;1.50;54.78;101385.70;1729373;83;21077;-63
2023/02/15 06:31:11;;;;;;;2.42;0.80;;;;;;;1.52;54.95;101391.84;1729310;83;21513;-63
2023/02/15 06:33:41;;;;;;;3.52;1.10;;;;;;;1.56;55.13;101388.42;1729154;83;21027;-65
2023/02/15 06:36:10;;;;;;;4.55;1.10;;;;;;;1.57;55.43;101392.36;1729369;83;21447;-63
2023/02/15 06:38:40;;;;;;;2.40;1.10;;;;;;;1.56;55.76;101386.59;1729451;83;21435;-64
2023/02/15 06:41:10;;;;;;;14.45;1.77;;;;;;;1.56;55.87;101386.59;1729454;83;21474;-64
2023/02/15 06:43:40;;;;;;;13.22;1.90;;;;;;;1.55;56.04;101380.81;1729259;83;21038;-63
2023/02/15 06:46:09;;;;;;;5.05;1.35;;;;;;;1.54;56.16;101381.79;1729286;83;21486;-64
2023/02/15 06:48:38;;;;;;;4.60;1.40;;;;;;;1.51;56.01;101382.02;1729208;83;21046;-64
2023/02/15 06:51:07;;;;;;;4.00;1.55;;;;;;;1.49;55.96;101381.77;1729410;83;21062;-62
2023/02/15 06:53:36;;;;;;;6.83;1.50;;;;;;;1.44;56.26;101383.45;1729324;83;21978;-65
2023/02/15 06:56:06;;;;;;;4.30;1.70;;;;;;;1.42;56.22;101386.77;1729145;83;21030;-64
2023/02/15 06:58:41;;;;;;;11.85;2.22;;;;;;;1.38;56.44;101378.52;1729291;83;21105;-65
2023/02/15 07:01:10;;;;;;;11.25;1.98;;;;;;;1.36;56.63;101379.61;1729490;83;21474;-63
2023/02/15 07:03:39;;;;;;;10.50;2.58;;;;;;;1.39;56.88;101376.68;1729267;83;21018;-63
2023/02/15 07:06:08;;;;;;;68.37;3.92;;;;;;;1.41;56.90;101379.64;1729433;82;21061;-66
2023/02/15 07:08:38;;;;;;;11.73;1.87;;;;;;;1.39;56.62;101368.09;1729561;83;21018;-64
2023/02/15 07:13:55;;;;;;;4.62;1.55;;;;;;;1.40;56.42;101367.60;1729253;83;21042;-65
2023/02/15 07:16:23;;;;;;;5.83;1.82;;;;;;;1.40;56.21;101373.86;1729283;83;21058;-64
2023/02/15 07:18:52;;;;;;;7.37;1.52;;;;;;;1.40;56.01;101366.25;1729411;83;21058;-66
2023/02/15 07:21:21;;;;;;;17.85;2.20;;;;;;;1.36;56.14;101371.02;1729392;83;21474;-65
2023/02/15 07:23:50;;;;;;;3.00;1.62;;;;;;;1.35;55.97;101365.73;1729379;83;21498;-65
2023/02/15 07:26:18;;;;;;;3.98;1.75;;;;;;;1.32;56.01;101368.67;1729485;83;21654;-65
2023/02/15 07:28:47;;;;;;;6.78;1.67;;;;;;;1.29;56.08;101365.67;1729630;83;21431;-65
2023/02/15 07:31:16;;;;;;;3.65;1.72;;;;;;;1.28;56.24;101358.55;1702074;83;21515;-65
2023/02/15 07:33:46;;;;;;;4.08;1.47;;;;;;;1.31;56.34;101360.19;1729913;83;21066;-64
2023/02/15 07:36:15;;;;;;;7.92;1.90;;;;;;;1.34;56.53;101364.88;1729491;83;21050;-64
2023/02/15 07:38:44;;;;;;;4.70;1.60;;;;;;;1.38;56.41;101360.11;1729391;83;21482;-64
2023/02/15 07:41:14;;;;;;;5.50;1.47;;;;;;;1.37;56.41;101357.89;1729399;83;21034;-64
2023/02/15 07:43:44;;;;;;;2.92;1.10;;;;;;;1.38;56.62;101358.27;1729136;83;21447;-65
2023/02/15 07:46:16;;;;;;;7.03;1.47;;;;;;;1.39;56.39;101362.69;1729560;82;21051;-66
2023/02/15 07:48:45;;;;;;;6.65;1.40;;;;;;;1.35;56.17;101361.20;1729821;83;21490;-65
2023/02/15 07:51:18;;;;;;;17.73;1.75;;;;;;;1.31;56.32;101363.75;1729544;82;21038;-64
2023/02/15 07:53:47;;;;;;;6.75;1.47;;;;;;;1.31;56.52;101375.91;1729322;83;21110;-64
2023/02/15 07:56:17;;;;;;;3.20;1.47;;;;;;;1.33;56.69;101373.09;1729828;82;21103;-65
2023/02/15 07:58:50;;;;;;;5.83;1.60;;;;;;;1.37;56.55;101382.20;1729187;83;21058;-63
2023/02/15 08:01:26;;;;;;;10.95;1.70;;;;;;;1.39;56.61;101387.48;1729383;83;21458;-63
2023/02/15 08:03:56;;;;;;;4.47;1.43;;;;;;;1.52;56.68;101391.84;1729742;83;21525;-64
2023/02/15 08:06:28;;;;;;;11.50;1.62;;;;;;;1.93;56.12;101391.02;1729359;83;21430;-64
2023/02/15 08:08:57;;;;;;;2.30;1.37;;;;;;;2.41;55.57;101395.34;1729427;82;21078;-64
2023/02/15 08:11:33;;;;;;;5.67;1.40;;;;;;;2.91;54.13;101411.27;1729641;82;21106;-63
2023/02/15 08:14:08;;;;;;;5.35;1.50;;;;;;;3.22;53.17;101406.44;1729400;83;21062;-63
2023/02/15 08:16:59;;;;;;;11.75;2.12;;;;;;;3.64;52.79;101403.89;1729340;83;21093;-64
2023/02/15 08:19:29;;;;;;;;;;;;;;;4.05;51.48;101398.56;1731792;82;21042;-64
2023/02/15 08:22:03;;;;;;;14.78;1.47;;;;;;;4.42;50.73;101399.45;1729535;83;20176;-65
2023/02/15 08:24:36;;;;;;;6.90;1.92;;;;;;;4.72;50.18;101392.73;1729128;82;21078;-64
2023/02/15 08:27:09;;;;;;;3.75;1.70;;;;;;;5.01;49.52;101402.34;1729453;83;21446;-66
2023/02/15 08:29:39;;;;;;;3.98;1.60;;;;;;;5.38;48.82;101387.69;1729362;82;21073;-66
2023/02/15 08:32:11;;;;;;;3.50;1.42;;;;;;;5.65;46.96;101392.95;1729365;83;21026;-66
2023/02/15 08:34:42;;;;;;;7.95;1.77;;;;;;;5.66;46.18;101387.36;1729631;83;21026;-64
2023/02/15 08:37:10;;;;;;;7.62;1.62;;;;;;;;;;1729883;82;21046;-65
2023/02/15 08:39:42;;;;;;;4.20;1.30;;;;;;;5.58;45.74;101394.02;1729104;83;21050;-66
2023/02/15 08:42:11;;;;;;;12.30;2.00;;;;;;;5.34;46.39;101397.12;1729374;83;21030;-67
2023/02/15 08:44:40;;;;;;;10.28;1.98;;;;;;;5.17;46.42;101399.11;1729494;83;21488;-64
2023/02/15 08:47:09;;;;;;;5.95;1.80;;;;;;;5.01;47.10;101397.41;1729181;83;21090;-65
2023/02/15 08:49:40;;;;;;;9.35;1.82;;;;;;;4.91;47.35;101398.73;1728936;83;21474;-64
2023/02/15 08:52:09;;;;;;;8.70;2.40;;;;;;;4.84;48.00;101396.70;1729236;83;21007;-62
2023/02/15 08:54:38;;;;;;;3.27;1.47;;;;;;;4.73;47.84;101398.52;1729356;83;21046;-64
2023/02/15 08:57:07;;;;;;;2.98;1.17;;;;;;;4.58;47.87;101401.72;1729294;83;21480;-64
2023/02/15 08:59:38;;;;;;;6.30;1.60;;;;;;;4.38;48.19;101405.65;1712321;83;21593;-65
2023/02/15 09:02:13;;;;;;;5.50;1.40;;;;;;;4.30;48.45;101400.52;1706892;82;21102;-66
2023/02/15 09:04:58;;;;;;;6.78;1.80;;;;;;;4.23;48.60;101409.69;1723877;82;21062;-67
2023/02/15 09:07:37;;;;;;;3.80;1.40;;;;;;;4.17;49.53;101399.37;1718696;83;21047;-68
2023/02/15 09:10:24;;;;;;;2.60;1.07;;;;;;;4.04;49.40;101397.34;1688080;84;21060;-67
2023/02/15 09:13:20;;;;;;;3.65;1.55;;;;;;;3.92;49.63;101399.25;1586510;89;21129;-68
2023/02/15 09:16:03;;;;;;;4.50;1.30;;;;;;;3.78;49.64;101404.45;1614136;89;21084;-67
2023/02/15 09:18:42;;;;;;;5.12;1.35;;;;;;;3.66;50.09;101407.34;1614902;89;21488;-66
2023/02/15 09:21:23;;;;;;;2.83;1.30;;;;;;;3.58;50.22;101412.04;1614913;89;21041;-67
2023/02/15 09:24:06;;;;;;;11.22;1.40;;;;;;;3.52;50.57;101413.91;1615094;89;21705;-68
2023/02/15 09:26:45;;;;;;;9.10;1.22;;;;;;;3.44;50.32;101403.70;1540953;93;21548;-71
2023/02/15 09:29:23;;;;;;;8.00;1.45;;;;;;;3.40;50.54;101405.44;1511178;95;21529;-68
2023/02/15 09:32:00;;;;;;;4.47;1.27;;;;;;;3.36;50.81;101403.97;1540882;93;21407;-67
2023/02/15 09:34:34;;;;;;;3.57;1.23;;;;;;;3.32;51.12;101405.22;1511531;94;21152;-68
2023/02/15 09:37:08;;;;;;;5.70;1.25;;;;;;;3.28;51.12;101411.88;1540924;93;21088;-69
2023/02/15 09:39:46;;;;;;;2.50;1.27;;;;;;;3.19;51.41;101413.45;1511651;95;21073;-69
2023/02/15 09:42:36;;;;;;;3.12;1.20;;;;;;;3.14;51.28;101403.00;1540915;93;21667;-67
2023/02/15 09:45:30;;;;;;;3.65;1.20;;;;;;;3.12;51.05;101406.82;1511237;94;21199;-67
2023/02/15 09:48:31;;;;;;;5.40;1.20;;;;;;;3.07;51.07;101418.02;1541184;93;21093;-65
2023/02/15 09:51:37;;;;;;;6.87;1.50;;;;;;;3.01;51.08;101409.05;1537320;91;21097;-67
2023/02/15 09:54:32;;;;;;;3.55;1.40;;;;;;;3.03;51.34;101408.92;1614997;89;21108;-68
2023/02/15 09:57:09;;;;;;;4.35;1.30;;;;;;;3.05;51.62;101405.10;1615209;89;21084;-64
2023/02/15 09:59:56;;;;;;;;;;;;;;;3.07;51.15;101402.27;1617443;89;21199;-66
2023/02/15 10:03:15;;;;;;;6.80;1.57;;;;;;;3.03;50.76;101399.45;1614905;89;20524;-64
2023/02/15 10:06:15;;;;;;;9.90;1.60;;;;;;;2.98;50.71;101394.41;1615590;89;21061;-66
2023/02/15 10:09:18;;;;;;;5.08;1.35;;;;;;;2.97;50.80;101388.63;1614983;89;21097;-64
2023/02/15 10:12:10;;;;;;;5.72;1.60;;;;;;;2.96;51.07;101400.93;1615012;89;21012;-66
2023/02/15 10:15:02;;;;;;;4.72;1.50;;;;;;;2.95;51.17;101394.66;1615156;89;21012;-66
2023/02/15 10:17:53;;;;;;;3.72;1.40;;;;;;;2.97;50.43;101395.39;1598614;88;21056;-65
2023/02/15 10:20:28;;;;;;;4.22;1.70;;;;;;;2.98;50.16;101392.19;1615230;89;21045;-65
2023/02/15 10:23:35;;;;;;;3.92;1.80;;;;;;;2.99;49.92;101391.20;1615041;89;21044;-65
2023/02/15 10:26:18;;;;;;;6.85;1.70;;;;;;;2.97;49.75;101388.63;1615259;89;21116;-65
2023/02/15 10:29:07;;;;;;;6.42;1.42;;;;;;;3.01;50.27;101387.88;1629488;84;21065;-64
2023/02/15 10:31:52;;;;;;;4.62;1.32;;;;;;;3.04;50.61;101387.14;1699587;84;21181;-66
2023/02/15 10:34:33;;;;;;;5.30;1.35;;;;;;;3.10;50.13;101387.98;1699678;84;21089;-64
2023/02/15 10:37:46;;;;;;;8.68;2.12;;;;;;;3.13;49.76;101385.52;1699759;84;21077;-65
2023/02/15 10:40:52;;;;;;;5.92;1.60;;;;;;;3.16;49.43;101386.13;1699874;84;21418;-64
2023/02/15 10:43:36;;;;;;;3.08;1.32;;;;;;;3.19;48.98;101379.61;1699973;84;21073;-65
2023/02/15 10:46:50;;;;;;;4.72;2.20;;;;;;;3.17;48.75;101369.39;1699957;84;21430;-65
2023/02/15 10:49:42;;;;;;;12.20;1.95;;;;;;;3.18;48.70;101377.39;1583708;90;21058;-65
2023/02/15 10:52:36;;;;;;;6.45;1.62;;;;;;;3.30;48.94;101386.37;1583069;90;21094;-65
2023/02/15 10:55:48;;;;;;;13.53;2.52;;;;;;;3.38;47.61;101379.83;1642649;85;21014;-65
2023/02/15 10:58:49;;;;;;;5.28;1.50;;;;;;;3.38;45.91;101383.90;1636376;86;21088;-66
2023/02/15 11:01:44;;;;;;;3.83;1.17;;;;;;;3.39;45.56;101376.63;1657631;86;21041;-65
2023/02/15 11:04:45;;;;;;;4.47;1.30;;;;;;;3.37;44.29;101372.70;1657579;86;21037;-67
2023/02/15 11:07:43;;;;;;;6.42;1.60;;;;;;;3.35;44.75;101372.45;1657310;86;21050;-65
2023/02/15 11:10:36;;;;;;;5.53;0.98;;;;;;;3.37;45.08;101372.70;1657408;85;21457;-67
2023/02/15 11:13:11;;;;;;;4.40;1.47;;;;;;;3.39;44.70;101370.72;1657556;86;21038;-66
2023/02/15 11:16:04;;;;;;;3.67;1.25;;;;;;;3.42;44.19;101371.82;1657552;86;21049;-66
2023/02/15 11:18:39;;;;;;;9.25;1.70;;;;;;;3.41;44.43;101358.41;1657505;85;21100;-66
2023/02/15 11:21:20;;;;;;;5.62;1.50;;;;;;;3.42;44.16;101358.27;1657299;86;21584;-65
2023/02/15 11:23:49;;;;;;;8.98;1.50;;;;;;;3.46;43.65;101363.80;1657749;86;21096;-67
2023/02/15 11:26:44;;;;;;;4.95;1.52;;;;;;;3.45;43.94;101367.50;1656863;86;21472;-68
2023/02/15 11:29:38;;;;;;;3.15;1.15;;;;;;;3.45;44.15;101364.79;1657523;85;21065;-68
2023/02/15 11:32:26;;;;;;;14.60;1.77;;;;;;;3.50;43.92;101367.97;1657533;85;21094;-70
2023/02/15 11:35:14;;;;;;;32.03;3.50;;;;;;;3.52;43.98;101362.42;1657368;86;21102;-70
2023/02/15 11:38:03;;;;;;;8.85;1.75;;;;;;;3.58;43.80;101360.55;1657479;86;21129;-68
2023/02/15 11:40:49;;;;;;;3.80;1.30;;;;;;;3.62;43.14;101358.45;1647782;86;21497;-68
2023/02/15 11:43:27;;;;;;;3.95;1.42;;;;;;;3.63;42.92;101357.45;1657429;85;21089;-68
2023/02/15 11:45:55;;;;;;;6.47;1.30;;;;;;;3.66;42.85;101361.27;1657796;86;21053;-69
2023/02/15 11:48:25;;;;;;;13.08;2.08;;;;;;;3.69;42.31;101351.52;1657879;85;21413;-68
2023/02/15 11:50:54;;;;;;;4.85;1.30;;;;;;;3.71;42.18;101348.19;1657688;86;21633;-68
2023/02/15 11:53:27;;;;;;;3.58;1.10;;;;;;;3.71;41.67;101361.23;1657751;86;21073;-70
2023/02/15 11:55:56;;;;;;;4.62;1.50;;;;;;;3.71;41.43;101349.54;1657652;86;21041;-69
2023/02/15 11:58:41;;;;;;;3.40;1.30;;;;;;;3.73;41.87;101343.00;1657136;86;21506;-70
2023/02/15 12:01:33;;;;;;;6.30;1.42;;;;;;;3.74;41.58;101354.20;1641819;86;21102;-70
2023/02/15 12:04:24;;;;;;;4.40;1.30;;;;;;;3.76;41.74;101348.66;1653759;87;21061;-69
2023/02/15 12:07:22;;;;;;;3.15;1.30;;;;;;;3.75;41.59;101341.02;1620000;87;21118;-70
2023/02/15 12:10:06;;;;;;;2.92;1.20;;;;;;;3.77;42.06;101335.46;1653860;87;21084;-68
2023/02/15 12:12:37;;;;;;;3.05;1.40;;;;;;;3.81;41.53;101343.20;1653950;86;21082;-70
2023/02/15 12:15:07;;;;;;;5.92;1.50;;;;;;;3.82;41.67;101331.36;1653825;87;21046;-70
2023/02/15 12:17:53;;;;;;;4.62;1.20;;;;;;;3.86;41.68;101336.03;1626047;88;21098;-68
2023/02/15 12:20:32;;;;;;;4.85;1.40;;;;;;;3.88;41.51;101335.41;1654166;86;21535;-67
2023/02/15 12:23:07;;;;;;;12.18;2.42;;;;;;;3.90;41.41;101325.78;1654080;86;21073;-64
2023/02/15 12:25:54;;;;;;;7.72;1.60;;;;;;;3.94;41.47;101329.48;1641928;87;21470;-68
2023/02/15 12:28:36;;;;;;;8.28;1.85;;;;;;;4.00;41.89;101328.09;1654073;87;21054;-70
2023/02/15 12:31:45;;;;;;;6.67;1.50;;;;;;;4.04;42.14;101334.97;1642079;87;21090;-68
2023/02/15 12:34:39;;;;;;;11.48;1.75;;;;;;;4.08;41.26;101333.22;1666184;86;21048;-65
2023/02/15 12:37:18;;;;;;;4.15;1.32;;;;;;;4.07;41.28;101327.92;1666670;85;21433;-66
2023/02/15 12:39:59;;;;;;;11.03;1.72;;;;;;;4.07;41.76;101333.35;1688509;84;21051;-67
2023/02/15 12:42:30;;;;;;;5.85;1.62;;;;;;;4.10;41.06;101326.30;1697583;84;21023;-67
2023/02/15 12:45:25;;;;;;;11.75;1.40;;;;;;;4.13;40.98;101330.11;1697518;84;21031;-67